Coral Palmata — ELWC5 — position and weather

sailwx.info

Track history (hours):
 
Tides and Currents Weather Stations Pressure Air Temp Water Temp Dewpoint Dewpoint Depression Visibility Wind Speed Wind Dir Waves Ship Positions

Coral Palmata

Last reported at 2017-Nov-19 06:17 UTC. Time now 2017-Nov-20 07:58 UTC.
Position N 47°47' W 006°41'.

Length 115 m; beam 17 m.

Type: Tanker. MMSI: 636010990.

Date/timePositionNaut miles runAvg speedWind from/ knotsBaromVisibWave heightAir tempDewpointWater temp
2017-Nov-19 06:17N 47°47' W 006°41'615.0
2017-Nov-19 05:51N 47°53' W 006°36'814.6
2017-Nov-19 05:16N 48°00' W 006°30'414.1
2017-Nov-19 05:01N 48°04' W 006°27'913.8
2017-Nov-19 04:20N 48°12' W 006°21'513.5
2017-Nov-19 03:58N 48°16' W 006°18'813.3
2017-Nov-19 03:23N 48°23' W 006°12'513.3
2017-Nov-19 02:59N 48°28' W 006°09'713.1
2017-Nov-19 02:29N 48°34' W 006°04'813.2
2017-Nov-19 01:53N 48°41' W 005°58'513.3
2017-Nov-19 01:29N 48°46' W 005°55'613.5
2017-Nov-19 01:00N 48°51' W 005°50'713.6
2017-Nov-19 00:29N 48°56' W 005°42'914.5
2017-Nov-18 23:54N 48°60' W 005°30'614.7
2017-Nov-18 23:30N 49°02' W 005°22'3215.3
2017-Nov-18 21:26N 49°19' W 004°41'5213.4
2017-Nov-18 17:32N 49°44' W 003°31'312.1
2017-Nov-18 17:20N 49°46' W 003°28'412.2
2017-Nov-18 16:59N 49°48' W 003°22'612.5
2017-Nov-18 16:30N 49°50' W 003°14'2413.9
2017-Nov-18 14:49N 50°00' W 002°40'2216.5
2017-Nov-18 13:29N 50°06' W 002°08'817.1
2017-Nov-18 13:00N 50°09' W 001°56'816.8
2017-Nov-18 12:30N 50°11' W 001°43'816.0
2017-Nov-18 12:00N 50°13' W 001°31'4612.9
2017-Nov-18 08:24N 50°25' W 000°21'511.7
2017-Nov-18 08:00N 50°27' W 000°14'612.1
2017-Nov-18 07:30N 50°29' W 000°05'612.4
2017-Nov-18 07:00N 50°30' E 000°05'813.1
2017-Nov-18 06:25N 50°33' E 000°16'713.7
2017-Nov-18 05:56N 50°35' E 000°26'614.5
2017-Nov-18 05:30N 50°37' E 000°35'815.1
2017-Nov-18 05:01N 50°42' E 000°45'815.4
2017-Nov-18 04:31N 50°46' E 000°54'815.2
2017-Nov-18 04:00N 50°51' E 001°04'714.8
2017-Nov-18 03:30N 50°56' E 001°12'714.5
2017-Nov-18 03:01N 51°01' E 001°21'713.7
2017-Nov-18 02:31N 51°05' E 001°30'612.6
2017-Nov-18 02:00N 51°09' E 001°38'612.1
2017-Nov-18 01:30N 51°13' E 001°45'612.1
2017-Nov-18 01:01N 51°18' E 001°50'612.2
2017-Nov-18 00:30N 51°23' E 001°55'612.8
2017-Nov-18 00:00N 51°29' E 001°60'713.3
2017-Nov-17 23:30N 51°34' E 002°07'713.4
2017-Nov-17 23:00N 51°39' E 002°14'7314.9
2017-Nov-17 18:06N 52°52' E 002°17'315.4
2017-Nov-17 17:53N 52°55' E 002°14'615.5
2017-Nov-17 17:30N 52°59' E 002°08'815.2
2017-Nov-17 17:01N 53°04' E 001°58'815.0
2017-Nov-17 16:29N 53°09' E 001°48'714.4
2017-Nov-17 16:00N 53°15' E 001°42'7114.1
2017-Nov-17 11:01N 54°10' E 000°28'113.5
2017-Nov-17 10:55N 54°12' E 000°27'513.4
2017-Nov-17 10:31N 54°16' E 000°22'713.2
2017-Nov-17 10:00N 54°21' E 000°15'713.0
2017-Nov-17 09:30N 54°27' E 000°08'613.0
2017-Nov-17 09:00N 54°32' E 000°02'713.0
2017-Nov-17 08:30N 54°37' W 000°05'713.2
2017-Nov-17 07:58N 54°43' W 000°13'613.3
2017-Nov-17 07:30N 54°47' W 000°19'2513.6
2017-Nov-17 05:42N 55°07' W 000°45'313.9
2017-Nov-17 05:28N 55°09' W 000°49'1614.2
2017-Nov-17 04:20N 55°22' W 001°06'514.5
2017-Nov-17 04:00N 55°26' W 001°11'1514.8
2017-Nov-17 03:00N 55°38' W 001°27'1115.3
2017-Nov-17 02:17N 55°46' W 001°39'415.1
2017-Nov-17 02:00N 55°49' W 001°45'815.2
2017-Nov-17 01:30N 55°54' W 001°55'714.9
2017-Nov-17 01:00N 55°58' W 002°05'714.5
2017-Nov-17 00:30N 56°03' W 002°16'714.4
2017-Nov-17 00:00N 56°07' W 002°27'714.6
2017-Nov-16 23:30N 56°07' W 002°40'714.0
2017-Nov-16 23:00N 56°05' W 002°52'713.9
2017-Nov-16 22:31N 56°03' W 003°04'510.2
2017-Nov-16 22:00N 56°02' W 003°13'713.3
2017-Nov-16 21:28N 56°00' W 003°25'9 0.2
2017-Nov-15 00:31N 56°02' W 003°42'0 1.7
2017-Nov-15 00:25N 56°02' W 003°41'0 1.1
2017-Nov-15 00:00N 56°02' W 003°41'5 9.0
2017-Nov-14 23:29N 56°02' W 003°32'511.4
2017-Nov-14 23:00N 56°00' W 003°23'510.8
2017-Nov-14 22:30N 56°02' W 003°14'510.0
2017-Nov-14 22:00N 56°04' W 003°05'4 7.7
2017-Nov-14 21:30N 56°07' W 003°03'1 1.8
2017-Nov-14 21:00N 56°08' W 003°02'0 0.1
2017-Nov-14 20:30N 56°08' W 003°02'0 0.1
2017-Nov-14 20:00N 56°08' W 003°02'0 0.1
2017-Nov-14 19:30N 56°08' W 003°02'0 0.0
2017-Nov-14 19:00N 56°08' W 003°02'0 0.1
2017-Nov-14 18:30N 56°08' W 003°02'0 0.0
2017-Nov-14 18:00N 56°08' W 003°02'0 0.0
2017-Nov-14 17:30N 56°08' W 003°02'0 0.0
2017-Nov-14 17:00N 56°08' W 003°02'0 0.0
2017-Nov-14 16:30N 56°08' W 003°02'0 0.0
2017-Nov-14 16:00N 56°08' W 003°02'0 0.0
2017-Nov-14 15:30N 56°08' W 003°02'0 0.0
2017-Nov-14 15:00N 56°08' W 003°02'0 0.0
2017-Nov-14 14:30N 56°08' W 003°02'0 0.0
2017-Nov-14 14:00N 56°08' W 003°02'0 0.0
2017-Nov-14 13:30N 56°08' W 003°02'0 0.0
2017-Nov-14 13:00N 56°08' W 003°02'0 0.0
2017-Nov-14 12:30N 56°08' W 003°02'0 0.0
2017-Nov-14 12:00N 56°08' W 003°02'0 0.0
2017-Nov-14 11:30N 56°08' W 003°02'0 0.0
2017-Nov-14 11:00N 56°08' W 003°02'0 0.0
2017-Nov-14 10:30N 56°08' W 003°02'0 0.0
2017-Nov-14 10:00N 56°08' W 003°02'0 0.0
2017-Nov-14 09:30N 56°08' W 003°02'0 0.0
2017-Nov-14 09:00N 56°08' W 003°02'0 0.0
2017-Nov-14 08:30N 56°08' W 003°02'0 0.0
2017-Nov-14 08:00N 56°08' W 003°02'0 0.0
2017-Nov-14 07:30N 56°08' W 003°02'0 0.0
2017-Nov-14 07:00N 56°08' W 003°02'0 0.0
2017-Nov-14 06:30N 56°08' W 003°02'0 0.0
2017-Nov-14 06:00N 56°08' W 003°02'0 0.0
2017-Nov-14 05:30N 56°08' W 003°02'0 0.0
2017-Nov-14 05:00N 56°08' W 003°02'0 0.0
2017-Nov-14 04:30N 56°08' W 003°02'0 0.0
2017-Nov-14 04:00N 56°08' W 003°02'0 0.0
2017-Nov-14 03:30N 56°08' W 003°02'0 0.0
2017-Nov-14 03:00N 56°08' W 003°02'0 0.0
2017-Nov-14 02:30N 56°08' W 003°02'0 0.0
2017-Nov-14 02:00N 56°08' W 003°02'0 0.0
2017-Nov-14 01:30N 56°08' W 003°02'0 0.0
2017-Nov-14 01:00N 56°08' W 003°02'0 0.0
2017-Nov-14 00:30N 56°08' W 003°02'0 0.1
2017-Nov-14 00:00N 56°08' W 003°02'0 0.0
2017-Nov-13 23:30N 56°08' W 003°02'0 0.0
2017-Nov-13 23:00N 56°08' W 003°02'0 0.1
2017-Nov-13 22:30N 56°08' W 003°02'0 0.0
2017-Nov-13 22:00N 56°08' W 003°02'0 0.0
2017-Nov-13 02:00N 56°08' W 003°02'0 0.0
2017-Nov-13 01:30N 56°08' W 003°02'0 0.1
2017-Nov-13 01:00N 56°08' W 003°02'0 0.0
2017-Nov-13 00:30N 56°08' W 003°02'0 0.0
2017-Nov-13 00:00N 56°08' W 003°02'0 0.0
2017-Nov-12 23:30N 56°08' W 003°02'0 0.0
2017-Nov-12 23:00N 56°08' W 003°02'0 0.0
2017-Nov-12 22:30N 56°08' W 003°02'0 0.0
2017-Nov-12 22:00N 56°08' W 003°02'0 0.0
2017-Nov-12 21:30N 56°08' W 003°02'0 0.0
2017-Nov-12 21:00N 56°08' W 003°02'0 0.0
2017-Nov-12 20:27N 56°08' W 003°02'0 0.0
2017-Nov-12 20:00N 56°08' W 003°02'0 0.0
2017-Nov-12 19:30N 56°08' W 003°02'0 0.0
2017-Nov-12 19:00N 56°08' W 003°02'0 0.0
2017-Nov-12 18:30N 56°08' W 003°02'0 0.0
2017-Nov-12 18:00N 56°08' W 003°02'0 0.0
2017-Nov-12 17:30N 56°08' W 003°02'0 0.0
2017-Nov-12 17:00N 56°08' W 003°02'0 0.0
2017-Nov-12 16:30N 56°08' W 003°02'0 0.0
2017-Nov-12 16:00N 56°08' W 003°02'0 0.0
2017-Nov-12 15:30N 56°08' W 003°02'0 0.0
2017-Nov-12 15:00N 56°08' W 003°02'0 0.0
2017-Nov-12 14:30N 56°08' W 003°02'0 0.0
2017-Nov-12 14:00N 56°08' W 003°02'0 0.0
2017-Nov-12 13:30N 56°08' W 003°02'0 0.0
2017-Nov-12 13:00N 56°08' W 003°02'0 0.0
2017-Nov-12 12:30N 56°08' W 003°02'0 0.0
2017-Nov-12 12:00N 56°08' W 003°02'0 0.0
2017-Nov-12 11:30N 56°08' W 003°02'0 0.0
2017-Nov-12 11:00N 56°08' W 003°02'0 0.0
2017-Nov-12 10:30N 56°08' W 003°02'0 0.0
2017-Nov-12 10:00N 56°08' W 003°02'0 0.0
2017-Nov-12 09:30N 56°08' W 003°02'0 0.0
2017-Nov-12 09:00N 56°08' W 003°02'0 0.1
2017-Nov-12 08:30N 56°08' W 003°02'0 0.0
2017-Nov-12 08:00N 56°08' W 003°02'0 0.0
2017-Nov-12 07:30N 56°08' W 003°02'0 0.0
2017-Nov-12 07:00N 56°08' W 003°02'0 0.0
2017-Nov-12 06:30N 56°08' W 003°02'0 0.1
2017-Nov-12 06:00N 56°08' W 003°02'510.0
2017-Nov-12 05:30N 56°08' W 002°53'714.0
2017-Nov-12 05:00N 56°08' W 002°41'713.6
2017-Nov-12 04:30N 56°07' W 002°29'713.8
2017-Nov-12 04:00N 56°04' W 002°18'714.0
2017-Nov-12 03:30N 56°00' W 002°07'714.1
2017-Nov-12 03:00N 55°55' W 001°58'713.9
2017-Nov-12 02:30N 55°51' W 001°49'713.9
2017-Nov-12 02:00N 55°46' W 001°40'913.7
2017-Nov-12 01:22N 55°39' W 001°30'513.4
2017-Nov-12 01:00N 55°35' W 001°27'713.4
2017-Nov-12 00:30N 55°28' W 001°24'713.3
2017-Nov-12 00:00N 55°22' W 001°21'713.1
2017-Nov-11 23:30N 55°15' W 001°19'713.1
2017-Nov-11 23:00N 55°09' W 001°16'713.2
2017-Nov-11 22:30N 55°03' W 001°13'713.2
2017-Nov-11 22:00N 54°56' W 001°10'713.1
2017-Nov-11 21:30N 54°50' W 001°08'912.9
2017-Nov-11 20:50N 54°41' W 001°04'0 0.0
2017-Nov-10 13:03N 54°41' W 001°04'0 2.1
2017-Nov-10 13:00N 54°41' W 001°04'0 0.5
2017-Nov-10 12:20N 54°41' W 001°04'1 2.4
2017-Nov-10 11:56N 54°41' W 001°02'510.9
2017-Nov-10 11:30N 54°40' W 000°54'1410.0
2017-Nov-10 10:08N 54°39' W 000°30'1 9.4
2017-Nov-10 10:00N 54°38' W 000°29'5 9.4
2017-Nov-10 09:30N 54°38' W 000°21'5 9.2
2017-Nov-10 09:00N 54°37' W 000°13'5 9.3
2017-Nov-10 08:30N 54°36' W 000°05'5 9.2
2017-Nov-10 08:00N 54°36' E 000°03'5 9.5
2017-Nov-10 07:30N 54°35' E 000°11'5 9.8
2017-Nov-10 06:58N 54°34' E 000°20'  
Track history (hours):
 
Tides and Currents Weather Stations Pressure Air Temp Water Temp Dewpoint Dewpoint Depression Visibility Wind Speed Wind Dir Waves Ship Positions

Coral Palmata

Last reported at 2017-Nov-19 06:17 UTC. Time now 2017-Nov-20 07:58 UTC.
Position N 47°47' W 006°41'.

Length 115 m; beam 17 m.

Type: Tanker. MMSI: 636010990.

Date/timePositionNaut miles runAvg speedWind from/ knotsBaromVisibWave heightAir tempDewpointWater temp
2017-Nov-19 06:17N 47°47' W 006°41'615.0
2017-Nov-19 05:51N 47°53' W 006°36'814.6
2017-Nov-19 05:16N 48°00' W 006°30'414.1
2017-Nov-19 05:01N 48°04' W 006°27'913.8
2017-Nov-19 04:20N 48°12' W 006°21'513.5
2017-Nov-19 03:58N 48°16' W 006°18'813.3
2017-Nov-19 03:23N 48°23' W 006°12'513.3
2017-Nov-19 02:59N 48°28' W 006°09'713.1
2017-Nov-19 02:29N 48°34' W 006°04'813.2
2017-Nov-19 01:53N 48°41' W 005°58'513.3
2017-Nov-19 01:29N 48°46' W 005°55'613.5
2017-Nov-19 01:00N 48°51' W 005°50'713.6
2017-Nov-19 00:29N 48°56' W 005°42'914.5
2017-Nov-18 23:54N 48°60' W 005°30'614.7
2017-Nov-18 23:30N 49°02' W 005°22'3215.3
2017-Nov-18 21:26N 49°19' W 004°41'5213.4
2017-Nov-18 17:32N 49°44' W 003°31'312.1
2017-Nov-18 17:20N 49°46' W 003°28'412.2
2017-Nov-18 16:59N 49°48' W 003°22'612.5
2017-Nov-18 16:30N 49°50' W 003°14'2413.9
2017-Nov-18 14:49N 50°00' W 002°40'2216.5
2017-Nov-18 13:29N 50°06' W 002°08'817.1
2017-Nov-18 13:00N 50°09' W 001°56'816.8
2017-Nov-18 12:30N 50°11' W 001°43'816.0
2017-Nov-18 12:00N 50°13' W 001°31'4612.9
2017-Nov-18 08:24N 50°25' W 000°21'511.7
2017-Nov-18 08:00N 50°27' W 000°14'612.1
2017-Nov-18 07:30N 50°29' W 000°05'612.4
2017-Nov-18 07:00N 50°30' E 000°05'813.1
2017-Nov-18 06:25N 50°33' E 000°16'713.7
2017-Nov-18 05:56N 50°35' E 000°26'614.5
2017-Nov-18 05:30N 50°37' E 000°35'815.1
2017-Nov-18 05:01N 50°42' E 000°45'815.4
2017-Nov-18 04:31N 50°46' E 000°54'815.2
2017-Nov-18 04:00N 50°51' E 001°04'714.8
2017-Nov-18 03:30N 50°56' E 001°12'714.5
2017-Nov-18 03:01N 51°01' E 001°21'713.7
2017-Nov-18 02:31N 51°05' E 001°30'612.6
2017-Nov-18 02:00N 51°09' E 001°38'612.1
2017-Nov-18 01:30N 51°13' E 001°45'612.1
2017-Nov-18 01:01N 51°18' E 001°50'612.2
2017-Nov-18 00:30N 51°23' E 001°55'612.8
2017-Nov-18 00:00N 51°29' E 001°60'713.3
2017-Nov-17 23:30N 51°34' E 002°07'713.4
2017-Nov-17 23:00N 51°39' E 002°14'7314.9
2017-Nov-17 18:06N 52°52' E 002°17'315.4
2017-Nov-17 17:53N 52°55' E 002°14'615.5
2017-Nov-17 17:30N 52°59' E 002°08'815.2
2017-Nov-17 17:01N 53°04' E 001°58'815.0
2017-Nov-17 16:29N 53°09' E 001°48'714.4
2017-Nov-17 16:00N 53°15' E 001°42'7114.1
2017-Nov-17 11:01N 54°10' E 000°28'113.5
2017-Nov-17 10:55N 54°12' E 000°27'513.4
2017-Nov-17 10:31N 54°16' E 000°22'713.2
2017-Nov-17 10:00N 54°21' E 000°15'713.0
2017-Nov-17 09:30N 54°27' E 000°08'613.0
2017-Nov-17 09:00N 54°32' E 000°02'713.0
2017-Nov-17 08:30N 54°37' W 000°05'713.2
2017-Nov-17 07:58N 54°43' W 000°13'613.3
2017-Nov-17 07:30N 54°47' W 000°19'2513.6
2017-Nov-17 05:42N 55°07' W 000°45'313.9
2017-Nov-17 05:28N 55°09' W 000°49'1614.2
2017-Nov-17 04:20N 55°22' W 001°06'514.5
2017-Nov-17 04:00N 55°26' W 001°11'1514.8
2017-Nov-17 03:00N 55°38' W 001°27'1115.3
2017-Nov-17 02:17N 55°46' W 001°39'415.1
2017-Nov-17 02:00N 55°49' W 001°45'815.2
2017-Nov-17 01:30N 55°54' W 001°55'714.9
2017-Nov-17 01:00N 55°58' W 002°05'714.5
2017-Nov-17 00:30N 56°03' W 002°16'714.4
2017-Nov-17 00:00N 56°07' W 002°27'714.6
2017-Nov-16 23:30N 56°07' W 002°40'714.0
2017-Nov-16 23:00N 56°05' W 002°52'713.9
2017-Nov-16 22:31N 56°03' W 003°04'510.2
2017-Nov-16 22:00N 56°02' W 003°13'713.3
2017-Nov-16 21:28N 56°00' W 003°25'9 0.2
2017-Nov-15 00:31N 56°02' W 003°42'0 1.7
2017-Nov-15 00:25N 56°02' W 003°41'0 1.1
2017-Nov-15 00:00N 56°02' W 003°41'5 9.0
2017-Nov-14 23:29N 56°02' W 003°32'511.4
2017-Nov-14 23:00N 56°00' W 003°23'510.8
2017-Nov-14 22:30N 56°02' W 003°14'510.0
2017-Nov-14 22:00N 56°04' W 003°05'4 7.7
2017-Nov-14 21:30N 56°07' W 003°03'1 1.8
2017-Nov-14 21:00N 56°08' W 003°02'0 0.1
2017-Nov-14 20:30N 56°08' W 003°02'0 0.1
2017-Nov-14 20:00N 56°08' W 003°02'0 0.1
2017-Nov-14 19:30N 56°08' W 003°02'0 0.0
2017-Nov-14 19:00N 56°08' W 003°02'0 0.1
2017-Nov-14 18:30N 56°08' W 003°02'0 0.0
2017-Nov-14 18:00N 56°08' W 003°02'0 0.0
2017-Nov-14 17:30N 56°08' W 003°02'0 0.0
2017-Nov-14 17:00N 56°08' W 003°02'0 0.0
2017-Nov-14 16:30N 56°08' W 003°02'0 0.0
2017-Nov-14 16:00N 56°08' W 003°02'0 0.0
2017-Nov-14 15:30N 56°08' W 003°02'0 0.0
2017-Nov-14 15:00N 56°08' W 003°02'0 0.0
2017-Nov-14 14:30N 56°08' W 003°02'0 0.0
2017-Nov-14 14:00N 56°08' W 003°02'0 0.0
2017-Nov-14 13:30N 56°08' W 003°02'0 0.0
2017-Nov-14 13:00N 56°08' W 003°02'0 0.0
2017-Nov-14 12:30N 56°08' W 003°02'0 0.0
2017-Nov-14 12:00N 56°08' W 003°02'0 0.0
2017-Nov-14 11:30N 56°08' W 003°02'0 0.0
2017-Nov-14 11:00N 56°08' W 003°02'0 0.0
2017-Nov-14 10:30N 56°08' W 003°02'0 0.0
2017-Nov-14 10:00N 56°08' W 003°02'0 0.0
2017-Nov-14 09:30N 56°08' W 003°02'0 0.0
2017-Nov-14 09:00N 56°08' W 003°02'0 0.0
2017-Nov-14 08:30N 56°08' W 003°02'0 0.0
2017-Nov-14 08:00N 56°08' W 003°02'0 0.0
2017-Nov-14 07:30N 56°08' W 003°02'0 0.0
2017-Nov-14 07:00N 56°08' W 003°02'0 0.0
2017-Nov-14 06:30N 56°08' W 003°02'0 0.0
2017-Nov-14 06:00N 56°08' W 003°02'0 0.0
2017-Nov-14 05:30N 56°08' W 003°02'0 0.0
2017-Nov-14 05:00N 56°08' W 003°02'0 0.0
2017-Nov-14 04:30N 56°08' W 003°02'0 0.0
2017-Nov-14 04:00N 56°08' W 003°02'0 0.0
2017-Nov-14 03:30N 56°08' W 003°02'0 0.0
2017-Nov-14 03:00N 56°08' W 003°02'0 0.0
2017-Nov-14 02:30N 56°08' W 003°02'0 0.0
2017-Nov-14 02:00N 56°08' W 003°02'0 0.0
2017-Nov-14 01:30N 56°08' W 003°02'0 0.0
2017-Nov-14 01:00N 56°08' W 003°02'0 0.0
2017-Nov-14 00:30N 56°08' W 003°02'0 0.1
2017-Nov-14 00:00N 56°08' W 003°02'0 0.0
2017-Nov-13 23:30N 56°08' W 003°02'0 0.0
2017-Nov-13 23:00N 56°08' W 003°02'0 0.1
2017-Nov-13 22:30N 56°08' W 003°02'0 0.0
2017-Nov-13 22:00N 56°08' W 003°02'0 0.0
2017-Nov-13 02:00N 56°08' W 003°02'0 0.0
2017-Nov-13 01:30N 56°08' W 003°02'0 0.1
2017-Nov-13 01:00N 56°08' W 003°02'0 0.0
2017-Nov-13 00:30N 56°08' W 003°02'0 0.0
2017-Nov-13 00:00N 56°08' W 003°02'0 0.0
2017-Nov-12 23:30N 56°08' W 003°02'0 0.0
2017-Nov-12 23:00N 56°08' W 003°02'0 0.0
2017-Nov-12 22:30N 56°08' W 003°02'0 0.0
2017-Nov-12 22:00N 56°08' W 003°02'0 0.0
2017-Nov-12 21:30N 56°08' W 003°02'0 0.0
2017-Nov-12 21:00N 56°08' W 003°02'0 0.0
2017-Nov-12 20:27N 56°08' W 003°02'0 0.0
2017-Nov-12 20:00N 56°08' W 003°02'0 0.0
2017-Nov-12 19:30N 56°08' W 003°02'0 0.0
2017-Nov-12 19:00N 56°08' W 003°02'0 0.0
2017-Nov-12 18:30N 56°08' W 003°02'0 0.0
2017-Nov-12 18:00N 56°08' W 003°02'0 0.0
2017-Nov-12 17:30N 56°08' W 003°02'0 0.0
2017-Nov-12 17:00N 56°08' W 003°02'0 0.0
2017-Nov-12 16:30N 56°08' W 003°02'0 0.0
2017-Nov-12 16:00N 56°08' W 003°02'0 0.0
2017-Nov-12 15:30N 56°08' W 003°02'0 0.0
2017-Nov-12 15:00N 56°08' W 003°02'0 0.0
2017-Nov-12 14:30N 56°08' W 003°02'0 0.0
2017-Nov-12 14:00N 56°08' W 003°02'0 0.0
2017-Nov-12 13:30N 56°08' W 003°02'0 0.0
2017-Nov-12 13:00N 56°08' W 003°02'0 0.0
2017-Nov-12 12:30N 56°08' W 003°02'0 0.0
2017-Nov-12 12:00N 56°08' W 003°02'0 0.0
2017-Nov-12 11:30N 56°08' W 003°02'0 0.0
2017-Nov-12 11:00N 56°08' W 003°02'0 0.0
2017-Nov-12 10:30N 56°08' W 003°02'0 0.0
2017-Nov-12 10:00N 56°08' W 003°02'0 0.0
2017-Nov-12 09:30N 56°08' W 003°02'0 0.0
2017-Nov-12 09:00N 56°08' W 003°02'0 0.1
2017-Nov-12 08:30N 56°08' W 003°02'0 0.0
2017-Nov-12 08:00N 56°08' W 003°02'0 0.0
2017-Nov-12 07:30N 56°08' W 003°02'0 0.0
2017-Nov-12 07:00N 56°08' W 003°02'0 0.0
2017-Nov-12 06:30N 56°08' W 003°02'0 0.1
2017-Nov-12 06:00N 56°08' W 003°02'510.0
2017-Nov-12 05:30N 56°08' W 002°53'714.0
2017-Nov-12 05:00N 56°08' W 002°41'713.6
2017-Nov-12 04:30N 56°07' W 002°29'713.8
2017-Nov-12 04:00N 56°04' W 002°18'714.0
2017-Nov-12 03:30N 56°00' W 002°07'714.1
2017-Nov-12 03:00N 55°55' W 001°58'713.9
2017-Nov-12 02:30N 55°51' W 001°49'713.9
2017-Nov-12 02:00N 55°46' W 001°40'913.7
2017-Nov-12 01:22N 55°39' W 001°30'513.4
2017-Nov-12 01:00N 55°35' W 001°27'713.4
2017-Nov-12 00:30N 55°28' W 001°24'713.3
2017-Nov-12 00:00N 55°22' W 001°21'713.1
2017-Nov-11 23:30N 55°15' W 001°19'713.1
2017-Nov-11 23:00N 55°09' W 001°16'713.2
2017-Nov-11 22:30N 55°03' W 001°13'713.2
2017-Nov-11 22:00N 54°56' W 001°10'713.1
2017-Nov-11 21:30N 54°50' W 001°08'912.9
2017-Nov-11 20:50N 54°41' W 001°04'0 0.0
2017-Nov-10 13:03N 54°41' W 001°04'0 2.1
2017-Nov-10 13:00N 54°41' W 001°04'0 0.5
2017-Nov-10 12:20N 54°41' W 001°04'1 2.4
2017-Nov-10 11:56N 54°41' W 001°02'510.9
2017-Nov-10 11:30N 54°40' W 000°54'1410.0
2017-Nov-10 10:08N 54°39' W 000°30'1 9.4
2017-Nov-10 10:00N 54°38' W 000°29'5 9.4
2017-Nov-10 09:30N 54°38' W 000°21'5 9.2
2017-Nov-10 09:00N 54°37' W 000°13'5 9.3
2017-Nov-10 08:30N 54°36' W 000°05'5 9.2
2017-Nov-10 08:00N 54°36' E 000°03'5 9.5
2017-Nov-10 07:30N 54°35' E 000°11'5 9.8
2017-Nov-10 06:58N 54°34' E 000°20'  

Dump ship's entire track history